sensor_id;sensor_type;location;lat;lon;timestamp;P1;durP1;ratioP1;P2;durP2;ratioP2
11988;SDS011;6054;50.966;7.094;2023-04-01T00:01:09;1.35;;;0.70;;
11988;SDS011;6054;50.966;7.094;2023-04-01T00:03:38;4.32;;;0.52;;
11988;SDS011;6054;50.966;7.094;2023-04-01T00:06:05;3.22;;;0.68;;
11988;SDS011;6054;50.966;7.094;2023-04-01T00:08:32;1.85;;;0.65;;
11988;SDS011;6054;50.966;7.094;2023-04-01T00:10:59;3.78;;;0.52;;
11988;SDS011;6054;50.966;7.094;2023-04-01T00:13:26;1.42;;;0.50;;
11988;SDS011;6054;50.966;7.094;2023-04-01T00:15:55;2.88;;;0.52;;
11988;SDS011;6054;50.966;7.094;2023-04-01T00:18:22;2.20;;;0.40;;
11988;SDS011;6054;50.966;7.094;2023-04-01T00:20:50;1.42;;;0.50;;
11988;SDS011;6054;50.966;7.094;2023-04-01T00:23:18;0.40;;;0.32;;
11988;SDS011;6054;50.966;7.094;2023-04-01T00:25:46;0.90;;;0.20;;
11988;SDS011;6054;50.966;7.094;2023-04-01T00:28:13;1.88;;;0.45;;
11988;SDS011;6054;50.966;7.094;2023-04-01T00:30:40;1.08;;;0.50;;
11988;SDS011;6054;50.966;7.094;2023-04-01T00:33:08;1.02;;;0.40;;
11988;SDS011;6054;50.966;7.094;2023-04-01T00:35:34;0.95;;;0.22;;
11988;SDS011;6054;50.966;7.094;2023-04-01T00:38:01;1.63;;;0.43;;
11988;SDS011;6054;50.966;7.094;2023-04-01T00:40:29;2.72;;;0.40;;
11988;SDS011;6054;50.966;7.094;2023-04-01T00:42:59;1.75;;;0.50;;
11988;SDS011;6054;50.966;7.094;2023-04-01T00:45:30;1.77;;;0.40;;
11988;SDS011;6054;50.966;7.094;2023-04-01T00:48:00;0.25;;;0.20;;
11988;SDS011;6054;50.966;7.094;2023-04-01T00:50:32;0.90;;;0.40;;
11988;SDS011;6054;50.966;7.094;2023-04-01T00:53:00;0.90;;;0.30;;
11988;SDS011;6054;50.966;7.094;2023-04-01T00:55:29;2.28;;;0.47;;
11988;SDS011;6054;50.966;7.094;2023-04-01T00:57:58;1.30;;;0.40;;
11988;SDS011;6054;50.966;7.094;2023-04-01T01:00:26;0.47;;;0.40;;
11988;SDS011;6054;50.966;7.094;2023-04-01T01:02:53;1.27;;;0.15;;
11988;SDS011;6054;50.966;7.094;2023-04-01T01:05:21;0.45;;;0.30;;
11988;SDS011;6054;50.966;7.094;2023-04-01T01:08:02;1.08;;;0.43;;
11988;SDS011;6054;50.966;7.094;2023-04-01T01:10:36;2.17;;;0.43;;
11988;SDS011;6054;50.966;7.094;2023-04-01T01:13:08;1.52;;;0.28;;
11988;SDS011;6054;50.966;7.094;2023-04-01T01:15:37;0.55;;;0.28;;
11988;SDS011;6054;50.966;7.094;2023-04-01T01:18:12;0.45;;;0.40;;
11988;SDS011;6054;50.966;7.094;2023-04-01T01:20:48;0.55;;;0.13;;
11988;SDS011;6054;50.966;7.094;2023-04-01T01:26:41;0.75;;;0.20;;
11988;SDS011;6054;50.966;7.094;2023-04-01T01:29:33;0.52;;;0.10;;
11988;SDS011;6054;50.966;7.094;2023-04-01T01:32:17;1.15;;;0.28;;
11988;SDS011;6054;50.966;7.094;2023-04-01T01:35:13;0.20;;;0.20;;
11988;SDS011;6054;50.966;7.094;2023-04-01T01:37:45;0.28;;;0.20;;
11988;SDS011;6054;50.966;7.094;2023-04-01T01:40:15;0.25;;;0.10;;
11988;SDS011;6054;50.966;7.094;2023-04-01T01:42:43;0.82;;;0.40;;
11988;SDS011;6054;50.966;7.094;2023-04-01T01:45:13;1.50;;;0.52;;
11988;SDS011;6054;50.966;7.094;2023-04-01T01:47:43;0.95;;;0.40;;
11988;SDS011;6054;50.966;7.094;2023-04-01T01:50:12;0.30;;;0.17;;
11988;SDS011;6054;50.966;7.094;2023-04-01T01:52:41;0.73;;;0.40;;
11988;SDS011;6054;50.966;7.094;2023-04-01T01:55:22;0.22;;;0.15;;
11988;SDS011;6054;50.966;7.094;2023-04-01T01:57:52;0.80;;;0.30;;
11988;SDS011;6054;50.966;7.094;2023-04-01T02:00:20;0.57;;;0.20;;
11988;SDS011;6054;50.966;7.094;2023-04-01T02:02:47;1.48;;;0.20;;
11988;SDS011;6054;50.966;7.094;2023-04-01T02:05:16;0.63;;;0.25;;
11988;SDS011;6054;50.966;7.094;2023-04-01T02:07:46;1.48;;;0.35;;
11988;SDS011;6054;50.966;7.094;2023-04-01T02:10:19;0.50;;;0.30;;
11988;SDS011;6054;50.966;7.094;2023-04-01T02:12:47;0.35;;;0.20;;
11988;SDS011;6054;50.966;7.094;2023-04-01T02:15:16;0.10;;;0.10;;
11988;SDS011;6054;50.966;7.094;2023-04-01T02:17:44;1.23;;;0.40;;
11988;SDS011;6054;50.966;7.094;2023-04-01T02:20:14;0.30;;;0.30;;
11988;SDS011;6054;50.966;7.094;2023-04-01T02:22:45;0.70;;;0.40;;
11988;SDS011;6054;50.966;7.094;2023-04-01T02:25:16;1.13;;;0.43;;
11988;SDS011;6054;50.966;7.094;2023-04-01T02:27:46;1.45;;;0.30;;
11988;SDS011;6054;50.966;7.094;2023-04-01T02:30:14;0.40;;;0.30;;
11988;SDS011;6054;50.966;7.094;2023-04-01T02:32:42;0.75;;;0.20;;
11988;SDS011;6054;50.966;7.094;2023-04-01T02:35:11;0.98;;;0.30;;
11988;SDS011;6054;50.966;7.094;2023-04-01T02:37:41;1.83;;;0.30;;
11988;SDS011;6054;50.966;7.094;2023-04-01T02:40:10;1.92;;;0.52;;
11988;SDS011;6054;50.966;7.094;2023-04-01T02:42:38;0.68;;;0.30;;
11988;SDS011;6054;50.966;7.094;2023-04-01T02:45:06;1.38;;;0.30;;
11988;SDS011;6054;50.966;7.094;2023-04-01T02:47:33;1.15;;;0.30;;
11988;SDS011;6054;50.966;7.094;2023-04-01T02:50:00;1.45;;;0.28;;
11988;SDS011;6054;50.966;7.094;2023-04-01T02:52:27;1.30;;;0.32;;
11988;SDS011;6054;50.966;7.094;2023-04-01T02:54:56;0.57;;;0.20;;
11988;SDS011;6054;50.966;7.094;2023-04-01T02:57:23;1.05;;;0.30;;
11988;SDS011;6054;50.966;7.094;2023-04-01T02:59:51;0.95;;;0.30;;
11988;SDS011;6054;50.966;7.094;2023-04-01T03:02:18;1.30;;;0.20;;
11988;SDS011;6054;50.966;7.094;2023-04-01T03:04:44;0.57;;;0.20;;
11988;SDS011;6054;50.966;7.094;2023-04-01T03:07:11;0.20;;;0.20;;
11988;SDS011;6054;50.966;7.094;2023-04-01T03:09:38;1.20;;;0.28;;
11988;SDS011;6054;50.966;7.094;2023-04-01T03:12:07;1.10;;;0.40;;
11988;SDS011;6054;50.966;7.094;2023-04-01T03:14:34;0.60;;;0.30;;
11988;SDS011;6054;50.966;7.094;2023-04-01T03:17:00;0.50;;;0.30;;
11988;SDS011;6054;50.966;7.094;2023-04-01T03:19:27;0.63;;;0.50;;
11988;SDS011;6054;50.966;7.094;2023-04-01T03:21:54;1.17;;;0.38;;
11988;SDS011;6054;50.966;7.094;2023-04-01T03:24:21;0.13;;;0.10;;
11988;SDS011;6054;50.966;7.094;2023-04-01T03:26:47;0.75;;;0.40;;
11988;SDS011;6054;50.966;7.094;2023-04-01T03:29:16;0.20;;;0.20;;
11988;SDS011;6054;50.966;7.094;2023-04-01T03:31:42;0.95;;;0.38;;
11988;SDS011;6054;50.966;7.094;2023-04-01T03:34:09;0.20;;;0.20;;
11988;SDS011;6054;50.966;7.094;2023-04-01T03:36:36;0.90;;;0.30;;
11988;SDS011;6054;50.966;7.094;2023-04-01T03:39:03;0.63;;;0.20;;
11988;SDS011;6054;50.966;7.094;2023-04-01T03:41:30;1.50;;;0.30;;
11988;SDS011;6054;50.966;7.094;2023-04-01T03:43:58;0.75;;;0.20;;
11988;SDS011;6054;50.966;7.094;2023-04-01T03:46:26;0.35;;;0.30;;
11988;SDS011;6054;50.966;7.094;2023-04-01T03:48:52;0.55;;;0.47;;
11988;SDS011;6054;50.966;7.094;2023-04-01T03:51:19;1.63;;;0.30;;
11988;SDS011;6054;50.966;7.094;2023-04-01T03:53:46;0.40;;;0.40;;
11988;SDS011;6054;50.966;7.094;2023-04-01T03:56:13;1.27;;;0.30;;
11988;SDS011;6054;50.966;7.094;2023-04-01T03:58:40;0.25;;;0.20;;
11988;SDS011;6054;50.966;7.094;2023-04-01T04:01:13;0.60;;;0.30;;
11988;SDS011;6054;50.966;7.094;2023-04-01T04:03:42;0.40;;;0.10;;
11988;SDS011;6054;50.966;7.094;2023-04-01T04:06:11;0.22;;;0.15;;
11988;SDS011;6054;50.966;7.094;2023-04-01T04:08:38;1.05;;;0.20;;
11988;SDS011;6054;50.966;7.094;2023-04-01T04:11:05;1.55;;;0.30;;
11988;SDS011;6054;50.966;7.094;2023-04-01T04:13:32;0.30;;;0.17;;
11988;SDS011;6054;50.966;7.094;2023-04-01T04:15:58;0.73;;;0.30;;
11988;SDS011;6054;50.966;7.094;2023-04-01T04:18:25;0.22;;;0.10;;
11988;SDS011;6054;50.966;7.094;2023-04-01T04:20:53;1.25;;;0.20;;
11988;SDS011;6054;50.966;7.094;2023-04-01T04:23:20;1.02;;;0.20;;
11988;SDS011;6054;50.966;7.094;2023-04-01T04:25:54;0.30;;;0.30;;
11988;SDS011;6054;50.966;7.094;2023-04-01T04:28:22;0.63;;;0.17;;
11988;SDS011;6054;50.966;7.094;2023-04-01T04:30:50;0.10;;;0.10;;
11988;SDS011;6054;50.966;7.094;2023-04-01T04:33:17;1.27;;;0.17;;
11988;SDS011;6054;50.966;7.094;2023-04-01T04:35:44;0.70;;;0.32;;
11988;SDS011;6054;50.966;7.094;2023-04-01T04:38:12;0.40;;;0.30;;
11988;SDS011;6054;50.966;7.094;2023-04-01T04:40:39;0.10;;;0.10;;
11988;SDS011;6054;50.966;7.094;2023-04-01T04:43:08;0.10;;;0.10;;
11988;SDS011;6054;50.966;7.094;2023-04-01T04:45:36;0.20;;;0.20;;
11988;SDS011;6054;50.966;7.094;2023-04-01T04:48:03;0.85;;;0.20;;
11988;SDS011;6054;50.966;7.094;2023-04-01T04:50:30;0.47;;;0.30;;
11988;SDS011;6054;50.966;7.094;2023-04-01T04:52:57;0.20;;;0.20;;
11988;SDS011;6054;50.966;7.094;2023-04-01T04:55:25;0.52;;;0.38;;
11988;SDS011;6054;50.966;7.094;2023-04-01T04:57:52;1.60;;;0.30;;
11988;SDS011;6054;50.966;7.094;2023-04-01T05:00:18;0.35;;;0.35;;
11988;SDS011;6054;50.966;7.094;2023-04-01T05:02:45;2.45;;;0.28;;
11988;SDS011;6054;50.966;7.094;2023-04-01T05:05:12;1.17;;;0.20;;
11988;SDS011;6054;50.966;7.094;2023-04-01T05:07:39;0.17;;;0.10;;
11988;SDS011;6054;50.966;7.094;2023-04-01T05:10:06;0.20;;;0.20;;
11988;SDS011;6054;50.966;7.094;2023-04-01T05:12:34;0.65;;;0.30;;
11988;SDS011;6054;50.966;7.094;2023-04-01T05:15:04;0.52;;;0.10;;
11988;SDS011;6054;50.966;7.094;2023-04-01T05:17:31;0.80;;;0.50;;
11988;SDS011;6054;50.966;7.094;2023-04-01T05:19:58;0.20;;;0.20;;
11988;SDS011;6054;50.966;7.094;2023-04-01T05:22:25;0.88;;;0.30;;
11988;SDS011;6054;50.966;7.094;2023-04-01T05:24:52;0.70;;;0.40;;
11988;SDS011;6054;50.966;7.094;2023-04-01T05:27:18;0.65;;;0.30;;
11988;SDS011;6054;50.966;7.094;2023-04-01T05:29:47;0.93;;;0.40;;
11988;SDS011;6054;50.966;7.094;2023-04-01T05:32:14;1.13;;;0.32;;
11988;SDS011;6054;50.966;7.094;2023-04-01T05:34:41;0.50;;;0.50;;
11988;SDS011;6054;50.966;7.094;2023-04-01T05:37:08;3.33;;;0.60;;
11988;SDS011;6054;50.966;7.094;2023-04-01T05:39:35;1.13;;;0.40;;
11988;SDS011;6054;50.966;7.094;2023-04-01T05:42:05;1.70;;;0.40;;
11988;SDS011;6054;50.966;7.094;2023-04-01T05:44:32;0.65;;;0.45;;
11988;SDS011;6054;50.966;7.094;2023-04-01T05:47:01;0.35;;;0.32;;
11988;SDS011;6054;50.966;7.094;2023-04-01T05:49:27;1.67;;;0.77;;
11988;SDS011;6054;50.966;7.094;2023-04-01T05:51:54;1.70;;;0.50;;
11988;SDS011;6054;50.966;7.094;2023-04-01T05:54:21;1.75;;;0.50;;
11988;SDS011;6054;50.966;7.094;2023-04-01T05:56:48;1.13;;;0.50;;
11988;SDS011;6054;50.966;7.094;2023-04-01T05:59:15;1.27;;;0.30;;
11988;SDS011;6054;50.966;7.094;2023-04-01T06:01:42;0.93;;;0.32;;
11988;SDS011;6054;50.966;7.094;2023-04-01T06:04:12;0.65;;;0.52;;
11988;SDS011;6054;50.966;7.094;2023-04-01T06:06:40;0.60;;;0.32;;
11988;SDS011;6054;50.966;7.094;2023-04-01T06:09:07;0.52;;;0.43;;
11988;SDS011;6054;50.966;7.094;2023-04-01T06:11:41;3.05;;;0.70;;
11988;SDS011;6054;50.966;7.094;2023-04-01T06:14:27;0.68;;;0.30;;
11988;SDS011;6054;50.966;7.094;2023-04-01T06:19:52;1.30;;;0.38;;
11988;SDS011;6054;50.966;7.094;2023-04-01T06:25:17;1.17;;;0.30;;
11988;SDS011;6054;50.966;7.094;2023-04-01T06:31:05;0.73;;;0.50;;
11988;SDS011;6054;50.966;7.094;2023-04-01T06:33:46;1.13;;;0.60;;
11988;SDS011;6054;50.966;7.094;2023-04-01T06:36:34;1.38;;;0.60;;
11988;SDS011;6054;50.966;7.094;2023-04-01T06:39:17;3.80;;;0.70;;
11988;SDS011;6054;50.966;7.094;2023-04-01T06:42:17;1.50;;;0.70;;
11988;SDS011;6054;50.966;7.094;2023-04-01T06:44:58;1.52;;;0.80;;
11988;SDS011;6054;50.966;7.094;2023-04-01T06:47:41;1.75;;;0.93;;
11988;SDS011;6054;50.966;7.094;2023-04-01T06:50:19;1.13;;;0.70;;
11988;SDS011;6054;50.966;7.094;2023-04-01T06:52:53;2.50;;;0.60;;
11988;SDS011;6054;50.966;7.094;2023-04-01T06:55:30;1.38;;;0.80;;
11988;SDS011;6054;50.966;7.094;2023-04-01T06:58:03;1.77;;;0.63;;
11988;SDS011;6054;50.966;7.094;2023-04-01T07:00:34;1.85;;;0.70;;
11988;SDS011;6054;50.966;7.094;2023-04-01T07:03:07;1.08;;;1.00;;
11988;SDS011;6054;50.966;7.094;2023-04-01T07:05:42;0.75;;;0.70;;
11988;SDS011;6054;50.966;7.094;2023-04-01T07:08:11;1.23;;;1.10;;
11988;SDS011;6054;50.966;7.094;2023-04-01T07:10:44;3.30;;;1.00;;
11988;SDS011;6054;50.966;7.094;2023-04-01T07:13:15;2.17;;;0.77;;
11988;SDS011;6054;50.966;7.094;2023-04-01T07:15:49;0.70;;;0.70;;
11988;SDS011;6054;50.966;7.094;2023-04-01T07:18:32;2.17;;;0.98;;
11988;SDS011;6054;50.966;7.094;2023-04-01T07:21:07;1.63;;;0.60;;
11988;SDS011;6054;50.966;7.094;2023-04-01T07:23:44;1.15;;;0.90;;
11988;SDS011;6054;50.966;7.094;2023-04-01T07:26:15;1.38;;;1.00;;
11988;SDS011;6054;50.966;7.094;2023-04-01T07:28:43;0.77;;;0.70;;
11988;SDS011;6054;50.966;7.094;2023-04-01T07:31:14;1.25;;;0.70;;
11988;SDS011;6054;50.966;7.094;2023-04-01T07:33:48;1.05;;;0.95;;
11988;SDS011;6054;50.966;7.094;2023-04-01T07:36:21;1.05;;;0.95;;
11988;SDS011;6054;50.966;7.094;2023-04-01T07:38:58;3.42;;;1.08;;
11988;SDS011;6054;50.966;7.094;2023-04-01T07:41:30;1.83;;;1.08;;
11988;SDS011;6054;50.966;7.094;2023-04-01T07:44:06;1.00;;;1.00;;
11988;SDS011;6054;50.966;7.094;2023-04-01T07:46:47;0.95;;;0.95;;
11988;SDS011;6054;50.966;7.094;2023-04-01T07:49:27;0.90;;;0.90;;
11988;SDS011;6054;50.966;7.094;2023-04-01T07:52:03;1.40;;;1.13;;
11988;SDS011;6054;50.966;7.094;2023-04-01T07:54:35;2.25;;;0.93;;
11988;SDS011;6054;50.966;7.094;2023-04-01T07:57:09;0.93;;;0.93;;
11988;SDS011;6054;50.966;7.094;2023-04-01T07:59:44;2.00;;;1.17;;
11988;SDS011;6054;50.966;7.094;2023-04-01T08:02:25;1.42;;;1.00;;
11988;SDS011;6054;50.966;7.094;2023-04-01T08:05:03;2.28;;;1.10;;
11988;SDS011;6054;50.966;7.094;2023-04-01T08:07:39;1.42;;;1.00;;
11988;SDS011;6054;50.966;7.094;2023-04-01T08:10:15;3.28;;;1.35;;
11988;SDS011;6054;50.966;7.094;2023-04-01T08:12:48;1.27;;;0.98;;
11988;SDS011;6054;50.966;7.094;2023-04-01T08:15:26;1.15;;;1.13;;
11988;SDS011;6054;50.966;7.094;2023-04-01T08:18:07;1.25;;;1.15;;
11988;SDS011;6054;50.966;7.094;2023-04-01T08:20:39;2.05;;;1.08;;
11988;SDS011;6054;50.966;7.094;2023-04-01T08:23:12;2.92;;;1.10;;
11988;SDS011;6054;50.966;7.094;2023-04-01T08:25:44;0.80;;;0.80;;
11988;SDS011;6054;50.966;7.094;2023-04-01T08:28:19;1.40;;;1.20;;
11988;SDS011;6054;50.966;7.094;2023-04-01T08:30:50;1.25;;;1.00;;
11988;SDS011;6054;50.966;7.094;2023-04-01T08:33:21;3.60;;;0.80;;
11988;SDS011;6054;50.966;7.094;2023-04-01T08:35:52;3.80;;;0.68;;
11988;SDS011;6054;50.966;7.094;2023-04-01T08:38:23;1.40;;;0.63;;
11988;SDS011;6054;50.966;7.094;2023-04-01T08:40:57;0.73;;;0.70;;
11988;SDS011;6054;50.966;7.094;2023-04-01T08:46:34;1.35;;;0.47;;
11988;SDS011;6054;50.966;7.094;2023-04-01T08:49:30;1.10;;;0.55;;
11988;SDS011;6054;50.966;7.094;2023-04-01T08:52:31;3.05;;;0.77;;
11988;SDS011;6054;50.966;7.094;2023-04-01T09:01:02;0.60;;;0.60;;
11988;SDS011;6054;50.966;7.094;2023-04-01T09:03:44;1.38;;;0.32;;
11988;SDS011;6054;50.966;7.094;2023-04-01T09:06:38;2.17;;;0.65;;
11988;SDS011;6054;50.966;7.094;2023-04-01T09:09:27;0.63;;;0.50;;
11988;SDS011;6054;50.966;7.094;2023-04-01T09:12:18;1.77;;;0.30;;
11988;SDS011;6054;50.966;7.094;2023-04-01T09:15:18;0.45;;;0.35;;
11988;SDS011;6054;50.966;7.094;2023-04-01T09:18:03;0.55;;;0.50;;
11988;SDS011;6054;50.966;7.094;2023-04-01T09:20:44;0.30;;;0.30;;
11988;SDS011;6054;50.966;7.094;2023-04-01T09:23:26;0.38;;;0.32;;
11988;SDS011;6054;50.966;7.094;2023-04-01T09:29:01;0.40;;;0.40;;
11988;SDS011;6054;50.966;7.094;2023-04-01T09:31:44;0.32;;;0.32;;
11988;SDS011;6054;50.966;7.094;2023-04-01T09:37:20;2.55;;;0.40;;
11988;SDS011;6054;50.966;7.094;2023-04-01T09:39:56;0.40;;;0.40;;
11988;SDS011;6054;50.966;7.094;2023-04-01T09:42:50;0.30;;;0.30;;
11988;SDS011;6054;50.966;7.094;2023-04-01T09:45:37;0.40;;;0.40;;
11988;SDS011;6054;50.966;7.094;2023-04-01T09:48:17;0.75;;;0.35;;
11988;SDS011;6054;50.966;7.094;2023-04-01T09:51:04;0.98;;;0.80;;
11988;SDS011;6054;50.966;7.094;2023-04-01T09:53:45;6.38;;;5.88;;
11988;SDS011;6054;50.966;7.094;2023-04-01T09:56:24;1.50;;;1.40;;
11988;SDS011;6054;50.966;7.094;2023-04-01T09:59:32;0.70;;;0.70;;
11988;SDS011;6054;50.966;7.094;2023-04-01T10:05:34;0.80;;;0.80;;
11988;SDS011;6054;50.966;7.094;2023-04-01T10:08:28;1.10;;;0.85;;
11988;SDS011;6054;50.966;7.094;2023-04-01T10:11:34;0.80;;;0.80;;
11988;SDS011;6054;50.966;7.094;2023-04-01T10:17:51;1.17;;;1.17;;
11988;SDS011;6054;50.966;7.094;2023-04-01T10:23:43;0.75;;;0.75;;
11988;SDS011;6054;50.966;7.094;2023-04-01T10:29:28;0.68;;;0.68;;
11988;SDS011;6054;50.966;7.094;2023-04-01T10:32:14;1.13;;;1.13;;
11988;SDS011;6054;50.966;7.094;2023-04-01T10:35:07;1.10;;;1.10;;
11988;SDS011;6054;50.966;7.094;2023-04-01T10:37:58;1.15;;;1.10;;
11988;SDS011;6054;50.966;7.094;2023-04-01T10:40:53;1.10;;;1.10;;
11988;SDS011;6054;50.966;7.094;2023-04-01T10:43:52;1.42;;;1.33;;
11988;SDS011;6054;50.966;7.094;2023-04-01T10:46:43;1.33;;;1.15;;
11988;SDS011;6054;50.966;7.094;2023-04-01T10:49:38;1.60;;;1.48;;
11988;SDS011;6054;50.966;7.094;2023-04-01T10:55:38;1.08;;;1.00;;
11988;SDS011;6054;50.966;7.094;2023-04-01T10:58:39;3.65;;;1.27;;
11988;SDS011;6054;50.966;7.094;2023-04-01T11:01:52;1.58;;;1.10;;
11988;SDS011;6054;50.966;7.094;2023-04-01T11:05:02;1.63;;;1.40;;
11988;SDS011;6054;50.966;7.094;2023-04-01T11:14:26;1.45;;;1.38;;
11988;SDS011;6054;50.966;7.094;2023-04-01T11:17:22;1.17;;;1.15;;
11988;SDS011;6054;50.966;7.094;2023-04-01T11:20:24;4.80;;;1.50;;
11988;SDS011;6054;50.966;7.094;2023-04-01T11:23:10;2.22;;;1.33;;
11988;SDS011;6054;50.966;7.094;2023-04-01T11:28:49;1.27;;;1.17;;
11988;SDS011;6054;50.966;7.094;2023-04-01T11:31:35;2.15;;;1.25;;
11988;SDS011;6054;50.966;7.094;2023-04-01T11:34:13;1.30;;;1.20;;
11988;SDS011;6054;50.966;7.094;2023-04-01T11:36:48;1.00;;;1.00;;
11988;SDS011;6054;50.966;7.094;2023-04-01T11:39:29;1.05;;;1.05;;
11988;SDS011;6054;50.966;7.094;2023-04-01T11:42:07;1.10;;;1.10;;
11988;SDS011;6054;50.966;7.094;2023-04-01T11:44:45;0.95;;;0.95;;
11988;SDS011;6054;50.966;7.094;2023-04-01T11:47:30;1.00;;;1.00;;
11988;SDS011;6054;50.966;7.094;2023-04-01T11:50:21;1.00;;;1.00;;
11988;SDS011;6054;50.966;7.094;2023-04-01T11:53:01;1.35;;;1.25;;
11988;SDS011;6054;50.966;7.094;2023-04-01T11:55:44;1.00;;;1.00;;
11988;SDS011;6054;50.966;7.094;2023-04-01T11:58:34;1.75;;;1.20;;
11988;SDS011;6054;50.966;7.094;2023-04-01T12:01:14;0.90;;;0.90;;
11988;SDS011;6054;50.966;7.094;2023-04-01T12:03:51;1.10;;;1.10;;
11988;SDS011;6054;50.966;7.094;2023-04-01T12:06:33;1.00;;;1.00;;
11988;SDS011;6054;50.966;7.094;2023-04-01T12:09:08;0.88;;;0.88;;
11988;SDS011;6054;50.966;7.094;2023-04-01T12:11:44;0.80;;;0.80;;
11988;SDS011;6054;50.966;7.094;2023-04-01T12:14:19;0.98;;;0.98;;
11988;SDS011;6054;50.966;7.094;2023-04-01T12:16:58;1.08;;;0.98;;
11988;SDS011;6054;50.966;7.094;2023-04-01T12:19:35;0.80;;;0.80;;
11988;SDS011;6054;50.966;7.094;2023-04-01T12:22:12;1.00;;;1.00;;
11988;SDS011;6054;50.966;7.094;2023-04-01T12:25:03;1.00;;;1.00;;
11988;SDS011;6054;50.966;7.094;2023-04-01T12:27:43;1.00;;;1.00;;
11988;SDS011;6054;50.966;7.094;2023-04-01T12:33:35;1.23;;;1.10;;
11988;SDS011;6054;50.966;7.094;2023-04-01T12:36:37;1.13;;;1.05;;
11988;SDS011;6054;50.966;7.094;2023-04-01T12:39:22;1.10;;;1.10;;
11988;SDS011;6054;50.966;7.094;2023-04-01T12:42:04;1.13;;;1.08;;
11988;SDS011;6054;50.966;7.094;2023-04-01T12:44:41;2.28;;;2.17;;
11988;SDS011;6054;50.966;7.094;2023-04-01T12:47:25;1.23;;;1.23;;
11988;SDS011;6054;50.966;7.094;2023-04-01T12:50:19;1.05;;;1.05;;
11988;SDS011;6054;50.966;7.094;2023-04-01T12:53:00;1.15;;;1.15;;
11988;SDS011;6054;50.966;7.094;2023-04-01T12:55:38;3.47;;;1.88;;
11988;SDS011;6054;50.966;7.094;2023-04-01T12:58:25;1.55;;;1.45;;
11988;SDS011;6054;50.966;7.094;2023-04-01T13:01:37;1.30;;;1.30;;
11988;SDS011;6054;50.966;7.094;2023-04-01T13:04:37;1.20;;;1.13;;
11988;SDS011;6054;50.966;7.094;2023-04-01T13:10:19;1.95;;;1.75;;
11988;SDS011;6054;50.966;7.094;2023-04-01T13:13:00;1.02;;;1.02;;
11988;SDS011;6054;50.966;7.094;2023-04-01T13:15:52;3.28;;;2.97;;
11988;SDS011;6054;50.966;7.094;2023-04-01T13:18:26;1.60;;;1.50;;
11988;SDS011;6054;50.966;7.094;2023-04-01T13:21:03;1.75;;;1.65;;
11988;SDS011;6054;50.966;7.094;2023-04-01T13:23:40;1.90;;;1.80;;
11988;SDS011;6054;50.966;7.094;2023-04-01T13:26:20;1.65;;;1.55;;
11988;SDS011;6054;50.966;7.094;2023-04-01T13:28:52;1.42;;;1.42;;
11988;SDS011;6054;50.966;7.094;2023-04-01T13:31:26;1.20;;;1.20;;
11988;SDS011;6054;50.966;7.094;2023-04-01T13:34:06;1.10;;;1.10;;
11988;SDS011;6054;50.966;7.094;2023-04-01T13:36:45;1.20;;;1.20;;
11988;SDS011;6054;50.966;7.094;2023-04-01T13:39:24;0.93;;;0.93;;
11988;SDS011;6054;50.966;7.094;2023-04-01T13:42:04;1.10;;;1.10;;
11988;SDS011;6054;50.966;7.094;2023-04-01T13:44:40;1.02;;;1.02;;
11988;SDS011;6054;50.966;7.094;2023-04-01T13:47:24;1.00;;;0.95;;
11988;SDS011;6054;50.966;7.094;2023-04-01T13:50:07;3.13;;;0.90;;
11988;SDS011;6054;50.966;7.094;2023-04-01T13:52:53;1.30;;;1.20;;
11988;SDS011;6054;50.966;7.094;2023-04-01T13:55:45;1.25;;;1.23;;
11988;SDS011;6054;50.966;7.094;2023-04-01T13:58:27;1.42;;;1.33;;
11988;SDS011;6054;50.966;7.094;2023-04-01T14:01:13;1.33;;;1.33;;
11988;SDS011;6054;50.966;7.094;2023-04-01T14:04:00;1.30;;;1.30;;
11988;SDS011;6054;50.966;7.094;2023-04-01T14:06:40;1.65;;;1.55;;
11988;SDS011;6054;50.966;7.094;2023-04-01T14:09:35;1.42;;;1.42;;
11988;SDS011;6054;50.966;7.094;2023-04-01T14:12:13;1.95;;;1.70;;
11988;SDS011;6054;50.966;7.094;2023-04-01T14:14:55;1.40;;;1.38;;
11988;SDS011;6054;50.966;7.094;2023-04-01T14:17:44;2.17;;;2.08;;
11988;SDS011;6054;50.966;7.094;2023-04-01T14:20:27;1.80;;;1.70;;
11988;SDS011;6054;50.966;7.094;2023-04-01T14:23:07;1.98;;;1.88;;
11988;SDS011;6054;50.966;7.094;2023-04-01T14:25:55;2.25;;;2.15;;
11988;SDS011;6054;50.966;7.094;2023-04-01T14:28:42;1.75;;;1.65;;
11988;SDS011;6054;50.966;7.094;2023-04-01T14:31:23;2.45;;;2.30;;
11988;SDS011;6054;50.966;7.094;2023-04-01T14:33:58;2.13;;;2.03;;
11988;SDS011;6054;50.966;7.094;2023-04-01T14:36:39;2.80;;;2.60;;
11988;SDS011;6054;50.966;7.094;2023-04-01T14:39:29;2.58;;;2.38;;
11988;SDS011;6054;50.966;7.094;2023-04-01T14:42:18;2.95;;;2.75;;
11988;SDS011;6054;50.966;7.094;2023-04-01T14:44:57;3.47;;;2.65;;
11988;SDS011;6054;50.966;7.094;2023-04-01T14:47:43;2.40;;;2.30;;
11988;SDS011;6054;50.966;7.094;2023-04-01T14:50:17;4.32;;;3.20;;
11988;SDS011;6054;50.966;7.094;2023-04-01T14:52:48;4.53;;;3.15;;
11988;SDS011;6054;50.966;7.094;2023-04-01T14:55:28;3.10;;;2.78;;
11988;SDS011;6054;50.966;7.094;2023-04-01T14:58:07;4.88;;;3.50;;
11988;SDS011;6054;50.966;7.094;2023-04-01T15:03:28;2.80;;;2.60;;
11988;SDS011;6054;50.966;7.094;2023-04-01T15:06:08;2.90;;;2.70;;
11988;SDS011;6054;50.966;7.094;2023-04-01T15:08:58;4.32;;;3.65;;
11988;SDS011;6054;50.966;7.094;2023-04-01T15:11:37;4.00;;;3.20;;
11988;SDS011;6054;50.966;7.094;2023-04-01T15:14:18;3.30;;;3.05;;
11988;SDS011;6054;50.966;7.094;2023-04-01T15:16:59;3.00;;;2.80;;
11988;SDS011;6054;50.966;7.094;2023-04-01T15:19:38;2.63;;;2.53;;
11988;SDS011;6054;50.966;7.094;2023-04-01T15:22:26;2.90;;;2.70;;
11988;SDS011;6054;50.966;7.094;2023-04-01T15:25:14;2.33;;;2.13;;
11988;SDS011;6054;50.966;7.094;2023-04-01T15:28:02;2.20;;;2.00;;
11988;SDS011;6054;50.966;7.094;2023-04-01T15:30:35;2.40;;;2.20;;
11988;SDS011;6054;50.966;7.094;2023-04-01T15:33:17;2.45;;;2.33;;
11988;SDS011;6054;50.966;7.094;2023-04-01T15:35:55;2.50;;;2.30;;
11988;SDS011;6054;50.966;7.094;2023-04-01T15:38:30;2.30;;;2.20;;
11988;SDS011;6054;50.966;7.094;2023-04-01T15:41:02;2.38;;;2.28;;
11988;SDS011;6054;50.966;7.094;2023-04-01T15:43:40;2.33;;;2.22;;
11988;SDS011;6054;50.966;7.094;2023-04-01T15:46:09;2.58;;;2.38;;
11988;SDS011;6054;50.966;7.094;2023-04-01T15:48:54;2.50;;;2.30;;
11988;SDS011;6054;50.966;7.094;2023-04-01T15:51:38;2.83;;;2.63;;
11988;SDS011;6054;50.966;7.094;2023-04-01T15:54:45;3.20;;;2.90;;
11988;SDS011;6054;50.966;7.094;2023-04-01T15:57:33;5.03;;;3.78;;
11988;SDS011;6054;50.966;7.094;2023-04-01T16:00:09;3.10;;;2.90;;
11988;SDS011;6054;50.966;7.094;2023-04-01T16:02:47;2.50;;;2.40;;
11988;SDS011;6054;50.966;7.094;2023-04-01T16:05:25;3.30;;;3.10;;
11988;SDS011;6054;50.966;7.094;2023-04-01T16:08:03;3.30;;;3.10;;
11988;SDS011;6054;50.966;7.094;2023-04-01T16:10:50;3.80;;;3.50;;
11988;SDS011;6054;50.966;7.094;2023-04-01T16:13:28;3.10;;;2.90;;
11988;SDS011;6054;50.966;7.094;2023-04-01T16:16:07;3.50;;;3.20;;
11988;SDS011;6054;50.966;7.094;2023-04-01T16:21:37;3.72;;;3.42;;
11988;SDS011;6054;50.966;7.094;2023-04-01T16:24:12;3.67;;;3.17;;
11988;SDS011;6054;50.966;7.094;2023-04-01T16:26:44;3.22;;;2.97;;
11988;SDS011;6054;50.966;7.094;2023-04-01T16:29:20;3.50;;;3.20;;
11988;SDS011;6054;50.966;7.094;2023-04-01T16:31:54;3.35;;;3.15;;
11988;SDS011;6054;50.966;7.094;2023-04-01T16:34:27;3.88;;;3.58;;
11988;SDS011;6054;50.966;7.094;2023-04-01T16:37:00;3.45;;;3.25;;
11988;SDS011;6054;50.966;7.094;2023-04-01T16:39:36;3.95;;;3.40;;
11988;SDS011;6054;50.966;7.094;2023-04-01T16:42:26;3.80;;;3.50;;
11988;SDS011;6054;50.966;7.094;2023-04-01T16:45:06;2.80;;;2.60;;
11988;SDS011;6054;50.966;7.094;2023-04-01T16:47:45;2.80;;;2.70;;
11988;SDS011;6054;50.966;7.094;2023-04-01T16:50:17;3.65;;;3.35;;
11988;SDS011;6054;50.966;7.094;2023-04-01T16:52:52;3.25;;;3.05;;
11988;SDS011;6054;50.966;7.094;2023-04-01T16:55:33;2.78;;;2.58;;
11988;SDS011;6054;50.966;7.094;2023-04-01T16:58:02;2.67;;;2.55;;
11988;SDS011;6054;50.966;7.094;2023-04-01T17:00:29;2.22;;;2.13;;